Time;durP1;ratioP1;P1;durP2;ratioP2;P2;SDS_P1;SDS_P2;PMS_P1;PMS_P2;Temp;Humidity;BMP_temperature;BMP_pressure;BME280_temperature;BME280_humidity;BME280_pressure;Samples;Min_cycle;Max_cycle;Signal;HPM_P1;HPM_P2
2023/04/08 04:30:26;;;;;;;7.40;4.50;;;9.20;70.30;;;;;;6105552;23;20051;31
2023/04/08 04:32:52;;;;;;;7.85;5.15;;;9.00;71.00;;;;;;4935224;29;20168;-77
2023/04/08 04:35:18;;;;;;;7.78;4.35;;;8.90;71.50;;;;;;4951802;29;20032;-77
2023/04/08 04:37:43;;;;;;;9.88;4.45;;;9.10;71.10;;;;;;4938075;29;20132;-77
2023/04/08 04:40:09;;;;;;;8.50;4.70;;;9.00;71.20;;;;;;4937955;29;20054;-78
2023/04/08 04:42:35;;;;;;;8.55;4.88;;;9.10;71.10;;;;;;4942318;29;20631;-77
2023/04/08 04:45:01;;;;;;;10.63;5.05;;;9.00;71.00;;;;;;4937890;29;20035;-77
2023/04/08 04:47:26;;;;;;;8.45;5.30;;;9.00;71.20;;;;;;4937753;29;20039;-78
2023/04/08 04:49:52;;;;;;;14.30;6.50;;;9.10;70.90;;;;;;4936041;29;20055;-78
2023/04/08 04:52:18;;;;;;;17.00;6.40;;;8.90;71.80;;;;;;4937701;29;20035;-77
2023/04/08 04:54:43;;;;;;;6.93;4.78;;;9.00;71.40;;;;;;4937875;29;20023;-77
2023/04/08 04:57:10;;;;;;;7.47;4.43;;;9.00;71.50;;;;;;4937829;29;20083;-77
2023/04/08 04:59:36;;;;;;;8.07;4.93;;;9.00;71.40;;;;;;4920745;29;20038;-78
2023/04/08 05:02:01;;;;;;;15.10;6.88;;;8.80;72.50;;;;;;4934248;29;20119;-78
2023/04/08 05:04:27;;;;;;;8.55;5.63;;;8.90;72.10;;;;;;4941033;29;20034;-77
2023/04/08 05:06:53;;;;;;;8.63;4.80;;;8.80;72.40;;;;;;4936913;29;20111;-77
2023/04/08 05:09:18;;;;;;;8.00;4.82;;;8.80;72.40;;;;;;4936410;29;20580;-77
2023/04/08 05:11:44;;;;;;;6.65;4.55;;;8.80;72.10;;;;;;4937397;29;20055;-77
2023/04/08 05:14:10;;;;;;;10.63;5.22;;;8.90;72.10;;;;;;4938176;29;20151;-76
2023/04/08 05:16:35;;;;;;;10.60;5.40;;;8.90;72.00;;;;;;4936575;29;20027;-76
2023/04/08 05:19:01;;;;;;;10.00;5.90;;;8.80;72.30;;;;;;4937887;29;20497;-77
2023/04/08 05:21:26;;;;;;;13.02;5.88;;;8.80;72.40;;;;;;4941659;29;20036;-77
2023/04/08 05:23:53;;;;;;;13.98;6.25;;;8.80;72.30;;;;;;4941499;29;20393;-76
2023/04/08 05:26:20;;;;;;;9.07;4.95;;;8.90;72.00;;;;;;4941501;29;20020;-77
2023/04/08 05:28:46;;;;;;;11.82;5.07;;;8.90;72.10;;;;;;4945680;29;20020;-77
2023/04/08 05:31:15;;;;;;;12.93;6.65;;;9.00;71.80;;;;;;4955874;29;20052;-78
2023/04/08 05:33:41;;;;;;;10.32;5.28;;;8.90;71.70;;;;;;4949363;29;20043;-78
2023/04/08 05:36:06;;;;;;;11.88;6.38;;;8.90;72.20;;;;;;4958835;29;20027;-77
2023/04/08 05:38:32;;;;;;;7.30;5.28;;;8.90;72.20;;;;;;4955977;29;20032;-78
2023/04/08 05:40:57;;;;;;;12.35;5.75;;;8.80;72.70;;;;;;4956018;29;20170;-77
2023/04/08 05:43:23;;;;;;;8.98;5.07;;;8.70;73.00;;;;;;4940700;29;20035;-76
2023/04/08 05:45:49;;;;;;;11.13;5.50;;;8.80;72.80;;;;;;4939274;29;20032;-77
2023/04/08 05:48:15;;;;;;;10.52;6.50;;;8.70;73.10;;;;;;4955665;29;20409;-77
2023/04/08 05:50:40;;;;;;;11.18;6.03;;;8.80;72.90;;;;;;4939887;29;20035;-77
2023/04/08 05:53:06;;;;;;;9.32;5.50;;;8.80;73.30;;;;;;4940470;29;20555;-77
2023/04/08 05:55:32;;;;;;;8.38;5.40;;;8.80;72.90;;;;;;4936301;29;20091;-78
2023/04/08 05:57:57;;;;;;;12.50;6.15;;;8.70;73.40;;;;;;4922115;29;20042;-78
2023/04/08 06:00:23;;;;;;;10.68;5.57;;;8.80;73.00;;;;;;4951444;29;20032;-77
2023/04/08 06:02:49;;;;;;;11.98;5.70;;;9.00;72.80;;;;;;4942586;29;20035;-78
2023/04/08 06:05:15;;;;;;;10.93;6.10;;;9.00;72.70;;;;;;4954182;29;20492;-77
2023/04/08 06:07:40;;;;;;;16.08;6.85;;;8.90;73.10;;;;;;4936074;29;20087;-77
2023/04/08 06:10:07;;;;;;;14.00;7.13;;;8.80;73.60;;;;;;4922112;29;20090;-78
2023/04/08 06:12:36;;;;;;;11.13;6.15;;;8.90;73.50;;;;;;4940661;29;20031;-77
2023/04/08 06:15:03;;;;;;;10.50;6.05;;;8.80;73.60;;;;;;4955525;29;20031;-77
2023/04/08 06:17:28;;;;;;;8.45;6.03;;;8.90;73.60;;;;;;4940463;29;20523;-76
2023/04/08 06:19:54;;;;;;;13.95;7.35;;;9.00;73.10;;;;;;4940615;29;20020;-75
2023/04/08 06:22:20;;;;;;;9.48;6.18;;;9.10;73.20;;;;;;4936218;29;20039;-75
2023/04/08 06:24:49;;;;;;;13.60;6.85;;;9.20;72.90;;;;;;4928834;29;20031;-77
2023/04/08 06:27:14;;;;;;;13.13;6.82;;;9.20;72.70;;;;;;4940086;29;20596;-78
2023/04/08 06:29:40;;;;;;;16.38;6.95;;;9.20;73.00;;;;;;4939411;29;20319;-77
2023/04/08 06:32:06;;;;;;;15.55;7.60;;;9.30;72.90;;;;;;4938442;29;20052;-76
2023/04/08 06:34:31;;;;;;;8.43;5.80;;;9.40;72.50;;;;;;4940319;29;20486;-77
2023/04/08 06:36:57;;;;;;;12.10;6.07;;;9.40;72.60;;;;;;4940373;29;20032;-80
2023/04/08 06:39:23;;;;;;;12.20;6.43;;;9.30;72.70;;;;;;4939439;29;20043;-76
2023/04/08 06:41:49;;;;;;;11.77;7.07;;;9.40;73.00;;;;;;4940225;29;20036;-74
2023/04/08 06:44:15;;;;;;;10.10;6.53;;;9.40;72.80;;;;;;4939728;29;20038;-76
2023/04/08 06:46:41;;;;;;;15.10;6.22;;;9.50;72.40;;;;;;4939568;29;20479;-77
2023/04/08 06:49:06;;;;;;;9.98;6.00;;;9.50;72.90;;;;;;4938162;29;20039;-76
2023/04/08 06:51:32;;;;;;;14.57;6.88;;;9.50;72.80;;;;;;4953837;29;20047;-76
2023/04/08 06:53:58;;;;;;;14.82;7.75;;;9.50;72.70;;;;;;4939540;29;20035;-74
2023/04/08 06:56:25;;;;;;;10.25;6.50;;;9.70;72.20;;;;;;4939464;29;20046;-74
2023/04/08 06:58:51;;;;;;;10.60;6.18;;;9.90;71.50;;;;;;4938095;29;20075;-77
2023/04/08 07:01:17;;;;;;;13.15;6.55;;;10.10;71.20;;;;;;4935361;29;20024;-78
2023/04/08 07:03:42;;;;;;;12.77;7.28;;;10.20;71.30;;;;;;4937901;29;20030;-77
2023/04/08 07:06:08;;;;;;;14.80;6.97;;;10.20;70.90;;;;;;4940161;29;20035;-79
2023/04/08 07:08:35;;;;;;;11.38;6.30;;;10.20;70.50;;;;;;4938998;29;20034;-79
2023/04/08 07:11:01;;;;;;;7.60;5.15;;;10.70;69.80;;;;;;4939448;29;20035;-79
2023/04/08 07:13:26;;;;;;;8.48;6.15;;;11.00;69.10;;;;;;4939344;29;20082;-79
2023/04/08 07:15:52;;;;;;;13.75;7.55;;;11.10;68.50;;;;;;4940132;29;20503;-79
2023/04/08 07:18:20;;;;;;;11.70;5.88;;;11.20;67.80;;;;;;4939491;29;20083;-79
2023/04/08 07:20:50;;;;;;;13.60;6.15;;;11.60;67.50;;;;;;4938942;29;20031;-78
2023/04/08 07:23:16;;;;;;;11.00;5.90;;;11.60;67.80;;;;;;4937802;29;20027;-80
2023/04/08 07:25:41;;;;;;;12.60;5.85;;;12.10;66.40;;;;;;4938171;29;20038;-86
2023/04/08 07:28:07;;;;;;;11.90;6.70;;;12.80;63.00;;;;;;4935083;29;20032;-83
2023/04/08 07:30:32;;;;;;;9.55;5.72;;;14.00;60.70;;;;;;4938583;29;20047;-83
2023/04/08 07:32:58;;;;;;;10.23;5.80;;;14.90;57.70;;;;;;4942435;29;20086;-83
2023/04/08 07:35:24;;;;;;;9.95;5.53;;;15.20;55.70;;;;;;4938642;29;20032;-82
2023/04/08 07:37:51;;;;;;;8.63;5.63;;;15.20;55.60;;;;;;4939938;29;20027;-83
2023/04/08 07:40:17;;;;;;;7.68;4.90;;;16.40;53.10;;;;;;4953188;29;20028;-83
2023/04/08 07:42:43;;;;;;;8.85;5.88;;;18.20;47.30;;;;;;4938622;29;20031;-84
2023/04/08 07:45:09;;;;;;;11.70;5.57;;;19.40;45.20;;;;;;4939323;29;20047;-83
2023/04/08 07:47:35;;;;;;;11.90;5.88;;;20.80;42.80;;;;;;4938948;29;20587;-81
2023/04/08 07:50:02;;;;;;;10.88;6.35;;;20.80;41.10;;;;;;4939459;29;20038;-83
2023/04/08 07:52:29;;;;;;;9.65;5.57;;;21.00;40.30;;;;;;4952140;29;20381;-81
2023/04/08 07:54:55;;;;;;;8.43;5.97;;;21.00;41.00;;;;;;4934455;29;20032;-83
2023/04/08 07:57:20;;;;;;;10.50;6.25;;;21.40;39.90;;;;;;4938161;29;20381;-82
2023/04/08 07:59:46;;;;;;;9.15;5.95;;;21.30;39.80;;;;;;4938652;29;20051;-82
2023/04/08 08:02:12;;;;;;;8.15;5.82;;;21.50;39.30;;;;;;4938389;29;20038;-82
2023/04/08 08:04:38;;;;;;;7.75;5.82;;;21.50;38.90;;;;;;4938801;29;20060;-83
2023/04/08 08:07:03;;;;;;;7.93;5.80;;;21.40;39.10;;;;;;4938691;29;20059;-83
2023/04/08 08:09:29;;;;;;;8.32;5.50;;;21.80;39.60;;;;;;4938954;29;20030;-83
2023/04/08 08:11:55;;;;;;;7.03;5.35;;;21.70;39.10;;;;;;4938243;29;20032;-83
2023/04/08 08:14:21;;;;;;;9.50;5.78;;;21.80;37.60;;;;;;4938078;29;20082;-83
2023/04/08 08:16:48;;;;;;;9.43;5.78;;;21.80;38.80;;;;;;4938472;29;20496;-83
2023/04/08 08:19:14;;;;;;;7.32;6.03;;;22.40;37.70;;;;;;4938122;29;20471;-83
2023/04/08 08:21:40;;;;;;;7.38;5.18;;;22.30;37.90;;;;;;4937420;29;20051;-82
2023/04/08 08:24:06;;;;;;;7.28;5.00;;;22.00;37.80;;;;;;4937950;29;20066;-83
2023/04/08 08:26:35;;;;;;;6.00;5.40;;;22.50;37.70;;;;;;4937802;29;20035;-83
2023/04/08 08:29:02;;;;;;;7.95;5.55;;;22.50;37.20;;;;;;4938111;29;20028;-83
2023/04/08 08:31:27;;;;;;;8.73;5.75;;;22.30;37.50;;;;;;4936715;29;20053;-83
2023/04/08 08:33:53;;;;;;;8.75;6.15;;;22.30;37.60;;;;;;4942198;29;20024;-83
2023/04/08 08:36:19;;;;;;;7.45;5.60;;;22.30;37.40;;;;;;4938843;29;20027;-83
2023/04/08 08:38:44;;;;;;;7.05;5.35;;;23.10;36.40;;;;;;4938931;29;20079;-83
2023/04/08 08:41:10;;;;;;;8.38;5.03;;;23.20;36.40;;;;;;4938954;29;20099;-83
2023/04/08 08:43:37;;;;;;;7.05;5.45;;;23.70;35.60;;;;;;4938003;29;20039;-84
2023/04/08 08:46:02;;;;;;;7.95;5.70;;;23.80;35.50;;;;;;4936967;29;20036;-83
2023/04/08 08:48:28;;;;;;;8.88;5.93;;;23.80;34.80;;;;;;4937861;29;20091;-83
2023/04/08 08:50:54;;;;;;;6.75;5.28;;;23.80;35.10;;;;;;4938354;29;20110;-84
2023/04/08 08:53:22;;;;;;;8.05;5.07;;;23.30;35.40;;;;;;4936262;29;20060;-86
2023/04/08 08:55:48;;;;;;;9.05;6.18;;;23.70;36.20;;;;;;4927572;29;20436;-85
2023/04/08 08:58:14;;;;;;;8.60;6.10;;;23.10;35.50;;;;;;4942095;29;20376;-87
2023/04/08 09:00:41;;;;;;;7.45;5.40;;;23.30;36.00;;;;;;4934466;29;20087;-84
2023/04/08 09:03:19;;;;;;;6.80;5.30;;;22.30;38.30;;;;;;4960159;29;20032;-88
2023/04/08 09:05:52;;;;;;;8.23;6.20;;;22.40;37.60;;;;;;4941146;29;20083;-87
2023/04/08 09:08:30;;;;;;;9.90;6.00;;;22.30;37.80;;;;;;4941054;29;20036;-89
2023/04/08 09:11:11;;;;;;;8.98;5.45;;;22.30;38.20;;;;;;4939937;29;20109;-86
2023/04/08 09:13:37;;;;;;;9.23;5.97;;;23.00;37.40;;;;;;4941552;29;20036;-87
2023/04/08 09:16:06;;;;;;;10.18;6.03;;;23.20;36.50;;;;;;4955675;29;20074;-80
2023/04/08 09:18:32;;;;;;;9.52;5.15;;;23.50;37.10;;;;;;4935212;29;20499;-84
2023/04/08 09:21:05;;;;;;;7.38;5.45;;;23.50;36.10;;;;;;4941278;29;20503;-82
2023/04/08 09:23:39;;;;;;;7.70;5.30;;;24.10;35.90;;;;;;4937736;29;20027;-82
2023/04/08 09:26:09;;;;;;;8.40;5.65;;;23.70;35.00;;;;;;4940590;29;20036;-82
2023/04/08 09:28:35;;;;;;;9.40;5.65;;;23.90;35.10;;;;;;4955932;29;20039;-81
2023/04/08 09:31:16;;;;;;;7.60;5.47;;;23.60;35.30;;;;;;4939395;29;20112;-78
2023/04/08 09:33:42;;;;;;;8.30;4.90;;;23.70;35.10;;;;;;4951103;29;20046;-80
2023/04/08 09:36:07;;;;;;;6.70;5.05;;;24.30;35.30;;;;;;4949278;28;20035;-80
2023/04/08 09:38:33;;;;;;;7.32;5.32;;;23.90;34.60;;;;;;4940082;29;20038;-77
2023/04/08 09:41:03;;;;;;;8.13;5.68;;;24.00;34.20;;;;;;4938752;29;20035;-77
2023/04/08 09:43:29;;;;;;;11.30;6.40;;;23.70;34.40;;;;;;4940547;29;20032;-77
2023/04/08 09:45:56;;;;;;;8.88;6.72;;;23.60;34.60;;;;;;4939886;29;20031;-81
2023/04/08 09:48:28;;;;;;;6.90;5.88;;;23.60;34.70;;;;;;4954472;29;20035;-83
2023/04/08 09:50:58;;;;;;;7.65;5.15;;;24.00;34.20;;;;;;4940274;29;20031;-81
2023/04/08 09:53:36;;;;;;;12.63;6.60;;;23.90;33.90;;;;;;4940518;29;20063;-78
2023/04/08 09:56:06;;;;;;;6.57;5.65;;;23.80;33.40;;;;;;4933712;29;20787;-81
2023/04/08 09:58:45;;;;;;;9.57;5.47;;;23.50;34.90;;;;;;4932768;29;20028;-80
2023/04/08 10:01:14;;;;;;;9.10;5.63;;;23.30;34.60;;;;;;4932878;29;20396;-80
2023/04/08 10:03:47;;;;;;;8.65;4.88;;;23.40;35.40;;;;;;4918489;29;20042;-80
2023/04/08 10:06:15;;;;;;;8.73;5.22;;;22.50;35.30;;;;;;4940154;29;20067;-79
2023/04/08 10:08:41;;;;;;;9.15;5.65;;;22.50;35.20;;;;;;4937347;29;20043;-80
2023/04/08 10:11:07;;;;;;;8.43;4.90;;;22.30;36.00;;;;;;4940055;29;20508;-80
2023/04/08 10:13:33;;;;;;;6.75;4.47;;;22.40;35.60;;;;;;4939185;29;20098;-80
2023/04/08 10:16:17;;;;;;;7.18;3.88;;;22.50;36.10;;;;;;4939572;29;20020;-80
2023/04/08 10:18:43;;;;;;;6.00;4.43;;;22.60;36.70;;;;;;4940166;29;20032;-80
2023/04/08 10:21:39;;;;;;;6.93;4.53;;;22.00;36.10;;;;;;4939202;29;20032;-80
2023/04/08 10:24:09;;;;;;;6.90;4.72;;;21.90;37.60;;;;;;4916875;29;20594;-80
2023/04/08 10:26:43;;;;;;;8.55;4.15;;;21.50;37.40;;;;;;4944468;29;20028;-80
2023/04/08 10:29:17;;;;;;;8.23;4.45;;;20.90;38.80;;;;;;4940179;29;20032;-79
2023/04/08 10:31:47;;;;;;;8.90;4.80;;;20.20;39.60;;;;;;4953644;29;20032;-80
2023/04/08 10:34:16;;;;;;;;;;;19.90;41.10;;;;;;4969146;28;20031;-80
2023/04/08 10:36:46;;;;;;;6.13;4.68;;;19.60;41.40;;;;;;4939006;29;20302;-80
2023/04/08 10:39:13;;;;;;;9.30;4.50;;;19.50;42.80;;;;;;4921307;29;20031;-81
2023/04/08 10:41:43;;;;;;;8.77;4.90;;;18.90;41.50;;;;;;4944746;29;20091;-81
2023/04/08 10:44:19;;;;;;;7.65;4.47;;;18.80;42.80;;;;;;4930423;29;20024;-79
2023/04/08 10:46:49;;;;;;;8.75;4.93;;;18.70;43.00;;;;;;4939841;29;20055;-76
2023/04/08 10:49:16;;;;;;;6.88;4.07;;;18.30;42.10;;;;;;4934054;29;20043;-76
2023/04/08 10:51:43;;;;;;;6.57;4.68;;;18.20;42.40;;;;;;4943794;29;20126;-76
2023/04/08 10:54:13;;;;;;;4.28;3.22;;;17.80;42.90;;;;;;4938928;29;20031;-78
2023/04/08 10:56:49;;;;;;;5.40;3.50;;;17.90;41.80;;;;;;4939449;29;20051;-80
2023/04/08 10:59:18;;;;;;;4.68;3.30;;;18.00;40.90;;;;;;4939037;29;20031;-74
2023/04/08 11:01:45;;;;;;;4.82;3.00;;;18.00;42.00;;;;;;4952418;29;20031;-76
2023/04/08 11:04:17;;;;;;;6.00;4.00;;;18.30;41.40;;;;;;4944673;29;20036;-76
2023/04/08 11:06:43;;;;;;;6.20;3.38;;;18.30;41.30;;;;;;4939281;29;20042;-77
2023/04/08 11:09:09;;;;;;;4.32;2.95;;;18.30;41.80;;;;;;4953859;29;20086;-79
2023/04/08 11:11:36;;;;;;;4.15;2.25;;;17.60;40.00;;;;;;4953275;29;20095;-78
2023/04/08 11:14:03;;;;;;;2.20;1.75;;;17.70;38.80;;;;;;4939171;29;20019;-79
2023/04/08 11:16:28;;;;;;;6.25;2.10;;;17.60;37.80;;;;;;4938098;29;20036;-78
2023/04/08 11:18:55;;;;;;;3.58;2.47;;;17.50;38.20;;;;;;4938941;29;20071;-78
2023/04/08 11:21:27;;;;;;;4.75;2.00;;;17.50;39.00;;;;;;4936725;29;20055;-78
2023/04/08 11:23:53;;;;;;;3.15;1.77;;;17.60;37.00;;;;;;4938902;29;20027;-74
2023/04/08 11:26:19;;;;;;;4.07;2.60;;;17.40;37.80;;;;;;4938814;29;20034;-81
2023/04/08 11:28:48;;;;;;;3.83;2.40;;;17.60;38.80;;;;;;4954219;29;20046;-87
2023/04/08 11:31:14;;;;;;;4.13;2.92;;;17.80;41.20;;;;;;4944551;29;20044;-83
2023/04/08 11:33:53;;;;;;;5.47;2.72;;;17.70;39.60;;;;;;4929076;29;20090;-77
2023/04/08 11:36:20;;;;;;;5.72;2.95;;;17.70;41.40;;;;;;4936797;29;20121;-79
2023/04/08 11:38:46;;;;;;;4.57;2.63;;;17.80;39.80;;;;;;4938363;29;20031;-81
2023/04/08 11:41:12;;;;;;;6.50;2.97;;;17.80;39.60;;;;;;4955690;29;20063;-77
2023/04/08 11:43:39;;;;;;;5.10;3.13;;;17.80;40.50;;;;;;4938800;29;20027;-81
2023/04/08 11:46:11;;;;;;;4.95;3.42;;;17.70;42.00;;;;;;4938611;29;20031;-76
2023/04/08 11:48:38;;;;;;;4.47;3.10;;;17.50;41.40;;;;;;4935042;29;20030;-77
2023/04/08 11:51:08;;;;;;;5.65;3.13;;;17.30;42.80;;;;;;4931749;29;20492;-76
2023/04/08 11:53:37;;;;;;;5.07;3.15;;;17.40;42.70;;;;;;4933105;29;20076;-76
2023/04/08 11:56:20;;;;;;;5.45;3.20;;;17.40;42.90;;;;;;4927285;29;20035;-77
2023/04/08 11:58:46;;;;;;;3.78;2.70;;;17.30;40.60;;;;;;4933860;29;20027;-77
2023/04/08 12:01:12;;;;;;;3.38;2.25;;;17.30;41.90;;;;;;4930762;29;20152;-78
2023/04/08 12:03:38;;;;;;;5.13;2.55;;;17.40;41.30;;;;;;4936423;29;20027;-75
2023/04/08 12:06:06;;;;;;;2.72;2.00;;;17.60;41.70;;;;;;4935291;29;20042;-76
2023/04/08 12:08:32;;;;;;;3.63;2.28;;;17.80;41.60;;;;;;4937047;29;20052;-75
2023/04/08 12:10:57;;;;;;;4.43;2.22;;;17.70;41.60;;;;;;4936555;29;20449;-76
2023/04/08 12:13:23;;;;;;;2.90;2.45;;;17.60;40.10;;;;;;4936655;29;20031;-76
2023/04/08 12:15:48;;;;;;;3.78;2.33;;;17.50;39.90;;;;;;4931303;29;20095;-76
2023/04/08 12:18:15;;;;;;;4.40;2.22;;;17.30;39.00;;;;;;4936757;29;20458;-75
2023/04/08 12:20:41;;;;;;;4.07;2.13;;;17.20;39.80;;;;;;4930491;29;20016;-75
2023/04/08 12:23:07;;;;;;;3.13;1.98;;;17.30;40.40;;;;;;4934707;29;20031;-75
2023/04/08 12:25:32;;;;;;;3.35;2.05;;;17.50;40.90;;;;;;4930882;29;20030;-76
2023/04/08 12:27:58;;;;;;;3.22;2.33;;;17.70;43.10;;;;;;4932179;29;20123;-76
2023/04/08 12:30:23;;;;;;;4.07;2.40;;;17.80;41.10;;;;;;4939725;29;20040;-78
2023/04/08 12:32:49;;;;;;;2.90;2.08;;;17.70;41.70;;;;;;4955242;29;20033;-77
2023/04/08 12:35:15;;;;;;;5.10;2.70;;;17.90;41.90;;;;;;4934830;29;20050;-79
2023/04/08 12:37:40;;;;;;;5.13;2.22;;;18.00;40.70;;;;;;4937439;29;20106;-80
2023/04/08 12:40:07;;;;;;;3.65;2.72;;;17.90;40.90;;;;;;4925172;29;20031;-80
2023/04/08 12:42:33;;;;;;;5.03;2.65;;;17.90;40.90;;;;;;4937621;29;20024;-80
2023/04/08 12:44:59;;;;;;;3.83;2.90;;;18.00;41.30;;;;;;4920773;29;20486;-83
2023/04/08 12:47:25;;;;;;;4.53;2.60;;;18.00;41.00;;;;;;4936050;29;20118;-79
2023/04/08 12:49:51;;;;;;;3.35;2.58;;;18.00;41.50;;;;;;4936815;29;20044;-80
2023/04/08 12:52:17;;;;;;;5.72;2.50;;;18.00;42.30;;;;;;4937354;29;20392;-80
2023/04/08 12:54:43;;;;;;;6.13;2.97;;;18.10;41.90;;;;;;4937262;29;20024;-79
2023/04/08 12:57:09;;;;;;;4.35;2.55;;;18.00;40.90;;;;;;4920395;29;20036;-79
2023/04/08 12:59:34;;;;;;;2.92;2.13;;;18.00;41.00;;;;;;4937931;29;20032;-80
2023/04/08 13:02:00;;;;;;;4.55;2.35;;;18.10;41.60;;;;;;4937529;29;20079;-79
2023/04/08 13:04:26;;;;;;;5.38;3.20;;;18.00;42.10;;;;;;4952970;29;20039;-80
2023/04/08 13:06:51;;;;;;;3.60;2.30;;;17.90;40.40;;;;;;4955910;29;20054;-79
2023/04/08 13:09:17;;;;;;;3.78;2.35;;;18.00;41.50;;;;;;4939442;29;20042;-79
2023/04/08 13:11:43;;;;;;;2.83;1.98;;;17.90;40.90;;;;;;4933994;29;20389;-79
2023/04/08 13:14:08;;;;;;;3.90;2.42;;;18.00;40.60;;;;;;4937937;29;20114;-79
2023/04/08 13:16:34;;;;;;;3.40;2.00;;;17.90;39.90;;;;;;4936910;29;20024;-79
2023/04/08 13:19:00;;;;;;;2.90;2.03;;;18.00;40.20;;;;;;4937879;29;20142;-79
2023/04/08 13:21:26;;;;;;;3.53;2.20;;;17.90;40.10;;;;;;4936790;29;20028;-79
2023/04/08 13:23:51;;;;;;;3.63;2.17;;;18.20;40.20;;;;;;4936783;29;20063;-79
2023/04/08 13:26:17;;;;;;;5.07;2.83;;;18.20;39.50;;;;;;4937379;29;20032;-79
2023/04/08 13:28:43;;;;;;;5.50;2.22;;;17.80;38.90;;;;;;4937652;29;20039;-79
2023/04/08 13:31:08;;;;;;;4.20;2.65;;;17.80;40.40;;;;;;4936987;29;20051;-79
2023/04/08 13:33:34;;;;;;;4.15;2.15;;;17.80;40.30;;;;;;4945050;29;20039;-81
2023/04/08 13:36:00;;;;;;;4.55;2.00;;;18.00;39.60;;;;;;4948000;29;20031;-87
2023/04/08 13:38:25;;;;;;;4.00;2.40;;;18.00;40.70;;;;;;4937148;29;20034;-81
2023/04/08 13:40:52;;;;;;;5.03;2.15;;;18.10;39.30;;;;;;4931070;29;20012;-82
2023/04/08 13:43:18;;;;;;;3.85;2.55;;;18.10;39.10;;;;;;4936747;29;20598;-82
2023/04/08 13:45:43;;;;;;;5.05;2.10;;;18.00;38.40;;;;;;4939809;29;20404;-81
2023/04/08 13:48:09;;;;;;;4.28;2.55;;;17.90;40.50;;;;;;4940345;29;20119;-81
2023/04/08 13:50:34;;;;;;;2.80;1.70;;;18.00;40.50;;;;;;4940411;29;20032;-81
2023/04/08 13:53:00;;;;;;;3.53;1.88;;;18.10;40.70;;;;;;4940872;29;20031;-81
2023/04/08 13:55:26;;;;;;;5.18;2.30;;;18.20;41.80;;;;;;4938722;29;20020;-80
2023/04/08 13:57:52;;;;;;;4.45;2.50;;;18.10;40.30;;;;;;4939985;29;20033;-80
2023/04/08 14:00:17;;;;;;;6.45;2.25;;;18.30;40.60;;;;;;4939983;29;20096;-80
2023/04/08 14:02:43;;;;;;;4.03;2.08;;;18.50;41.30;;;;;;4942711;29;20057;-80
2023/04/08 14:05:09;;;;;;;3.38;2.33;;;18.60;39.40;;;;;;4942830;29;20401;-80
2023/04/08 14:07:34;;;;;;;3.97;2.78;;;18.20;40.00;;;;;;4953810;29;20130;-80
2023/04/08 14:10:00;;;;;;;3.35;2.45;;;18.20;40.60;;;;;;4940559;29;20038;-80
2023/04/08 14:12:25;;;;;;;3.67;2.45;;;18.20;42.00;;;;;;4938449;29;20032;-80
2023/04/08 14:14:51;;;;;;;6.22;2.55;;;18.30;41.20;;;;;;4939088;29;20027;-80
2023/04/08 14:17:17;;;;;;;3.95;2.00;;;18.40;40.30;;;;;;4939844;29;20028;-79
2023/04/08 14:19:42;;;;;;;4.20;2.17;;;18.10;39.20;;;;;;4939596;29;20032;-80
2023/04/08 14:22:08;;;;;;;3.85;1.88;;;17.80;39.50;;;;;;4939055;29;20039;-81
2023/04/08 14:24:34;;;;;;;4.05;2.22;;;17.90;40.30;;;;;;4939552;29;20070;-79
2023/04/08 14:26:59;;;;;;;6.88;2.60;;;18.10;41.40;;;;;;4939033;29;20031;-79
2023/04/08 14:29:25;;;;;;;2.85;2.20;;;18.00;40.10;;;;;;4940032;29;20035;-79
2023/04/08 14:31:51;;;;;;;5.15;2.70;;;18.00;40.50;;;;;;4938333;29;20054;-80
2023/04/08 14:34:18;;;;;;;3.22;2.10;;;18.00;40.30;;;;;;4951938;29;20031;-80
2023/04/08 14:36:44;;;;;;;2.60;1.73;;;18.00;40.50;;;;;;4947412;29;20404;-79
2023/04/08 14:39:11;;;;;;;2.83;1.75;;;18.10;40.80;;;;;;4939759;29;20024;-79
2023/04/08 14:41:36;;;;;;;5.32;2.72;;;18.00;38.90;;;;;;4939779;29;20043;-78
2023/04/08 14:44:03;;;;;;;5.68;2.30;;;17.80;39.20;;;;;;4950389;29;20035;-80
2023/04/08 14:46:28;;;;;;;2.97;2.03;;;17.90;40.70;;;;;;4937105;29;20032;-79
2023/04/08 14:48:54;;;;;;;4.28;2.00;;;17.90;39.60;;;;;;4942079;29;20035;-83
2023/04/08 14:51:20;;;;;;;3.45;1.90;;;18.00;40.70;;;;;;4938713;29;20035;-81
2023/04/08 14:53:46;;;;;;;4.72;1.77;;;18.00;40.30;;;;;;4948077;29;20502;-80
2023/04/08 14:56:11;;;;;;;3.67;1.83;;;18.10;39.00;;;;;;4937774;29;20063;-83
2023/04/08 14:58:37;;;;;;;2.90;1.80;;;18.20;39.50;;;;;;4922774;29;20027;-81
2023/04/08 15:01:03;;;;;;;3.83;2.00;;;18.20;39.90;;;;;;4938969;29;20036;-81
2023/04/08 15:03:29;;;;;;;2.38;1.60;;;18.30;39.60;;;;;;4947865;29;20035;-80
2023/04/08 15:05:55;;;;;;;4.07;1.60;;;18.30;39.10;;;;;;4955773;29;20039;-83
2023/04/08 15:08:21;;;;;;;5.80;2.20;;;18.30;40.20;;;;;;4937830;29;20030;-84
2023/04/08 15:10:46;;;;;;;4.30;1.83;;;18.50;40.30;;;;;;4938675;29;20032;-81
2023/04/08 15:13:12;;;;;;;2.35;1.38;;;18.60;39.70;;;;;;4943218;29;20063;-81
2023/04/08 15:15:37;;;;;;;2.67;1.95;;;18.70;39.50;;;;;;4934515;29;20038;-80
2023/04/08 15:18:03;;;;;;;2.90;1.80;;;18.60;38.50;;;;;;4933320;29;20087;-80
2023/04/08 15:20:29;;;;;;;2.88;1.60;;;18.50;39.00;;;;;;4930518;29;20128;-80
2023/04/08 15:22:54;;;;;;;5.53;1.38;;;18.40;39.10;;;;;;4934464;29;20476;-79
2023/04/08 15:25:20;;;;;;;3.28;1.75;;;18.50;39.50;;;;;;4939937;29;20159;-80
2023/04/08 15:27:45;;;;;;;2.55;1.52;;;18.30;37.70;;;;;;4941594;29;20190;-80
2023/04/08 15:30:11;;;;;;;3.30;1.58;;;18.30;38.40;;;;;;4938042;29;20600;-78
2023/04/08 15:32:37;;;;;;;3.35;1.70;;;18.20;38.70;;;;;;4936051;29;20095;-78
2023/04/08 15:35:03;;;;;;;3.80;1.60;;;18.10;40.10;;;;;;4936344;29;20511;-78
2023/04/08 15:37:29;;;;;;;3.95;2.30;;;18.20;39.80;;;;;;4936979;29;20115;-78
2023/04/08 15:39:54;;;;;;;3.53;2.05;;;18.00;38.70;;;;;;4936972;29;20499;-78
2023/04/08 15:42:21;;;;;;;4.03;1.70;;;18.00;39.10;;;;;;4937815;29;20063;-78
2023/04/08 15:44:46;;;;;;;2.25;1.50;;;18.00;39.60;;;;;;4937697;29;20034;-78
2023/04/08 15:47:13;;;;;;;2.95;1.70;;;18.00;39.60;;;;;;4938720;29;20076;-84
2023/04/08 15:49:39;;;;;;;2.22;1.40;;;18.00;40.10;;;;;;4935683;29;20027;-80
2023/04/08 15:52:05;;;;;;;2.85;1.50;;;18.00;40.20;;;;;;4929001;29;20419;-79
2023/04/08 15:54:32;;;;;;;3.10;1.50;;;18.00;39.80;;;;;;4938005;29;20066;-82
2023/04/08 15:56:58;;;;;;;3.30;1.55;;;18.20;40.50;;;;;;4938011;29;20059;-76
2023/04/08 15:59:24;;;;;;;1.92;1.38;;;18.30;40.00;;;;;;4937788;29;20031;-79
2023/04/08 16:01:50;;;;;;;7.00;2.20;;;18.20;40.00;;;;;;4934153;29;20027;-81
2023/04/08 16:04:16;;;;;;;2.90;1.65;;;18.30;39.50;;;;;;4933936;28;20027;-84
2023/04/08 16:06:42;;;;;;;3.25;1.40;;;18.00;39.70;;;;;;4937572;29;20031;-82
2023/04/08 16:09:09;;;;;;;2.47;1.20;;;18.10;40.20;;;;;;4937663;29;20129;-80
2023/04/08 16:11:35;;;;;;;3.22;1.15;;;18.20;40.50;;;;;;4943577;29;20452;-79
2023/04/08 16:14:00;;;;;;;2.65;1.60;;;18.20;41.00;;;;;;4937986;29;20055;-81
2023/04/08 16:16:26;;;;;;;3.60;1.35;;;18.30;40.10;;;;;;4937932;29;20789;-80
2023/04/08 16:18:54;;;;;;;3.42;1.80;;;18.10;40.10;;;;;;4936253;29;20059;-77
2023/04/08 16:21:20;;;;;;;3.70;1.80;;;18.00;39.90;;;;;;4937722;29;20030;-77
2023/04/08 16:23:45;;;;;;;2.80;1.23;;;17.80;40.70;;;;;;4938141;29;20106;-77
2023/04/08 16:26:11;;;;;;;3.30;1.50;;;17.80;40.90;;;;;;4937652;29;20115;-78
2023/04/08 16:28:38;;;;;;;2.85;1.08;;;17.90;41.50;;;;;;4937849;29;20028;-78
2023/04/08 16:31:04;;;;;;;3.78;1.60;;;18.00;41.80;;;;;;4936929;29;20052;-83
2023/04/08 16:33:30;;;;;;;3.60;1.92;;;17.90;40.80;;;;;;4935274;29;20040;-81
2023/04/08 16:35:56;;;;;;;2.67;1.60;;;17.80;40.30;;;;;;4937319;29;20032;-78
2023/04/08 16:38:23;;;;;;;2.75;1.50;;;17.70;41.10;;;;;;4937435;29;20039;-79
2023/04/08 16:40:50;;;;;;;3.05;1.20;;;17.60;41.50;;;;;;4935938;29;20067;-77
2023/04/08 16:43:15;;;;;;;3.65;1.40;;;17.50;41.80;;;;;;4937243;29;20051;-77
2023/04/08 16:45:41;;;;;;;5.57;1.60;;;17.50;42.10;;;;;;4937874;29;20476;-77
2023/04/08 16:48:08;;;;;;;3.10;1.30;;;17.50;42.20;;;;;;4936022;29;20074;-79
2023/04/08 16:50:37;;;;;;;2.38;1.55;;;17.50;42.50;;;;;;4937418;29;20043;-79
2023/04/08 16:53:03;;;;;;;3.00;1.52;;;17.50;41.80;;;;;;4936696;29;20024;-80
2023/04/08 16:55:32;;;;;;;2.53;1.75;;;17.40;41.70;;;;;;4937900;29;20057;-76
2023/04/08 16:57:58;;;;;;;2.83;1.13;;;17.30;41.40;;;;;;4937190;29;20048;-75
2023/04/08 17:00:23;;;;;;;2.65;1.40;;;17.40;42.20;;;;;;4937826;29;20050;-79
2023/04/08 17:02:49;;;;;;;2.35;1.30;;;17.40;41.70;;;;;;4939569;29;20030;-78
2023/04/08 17:05:15;;;;;;;2.75;1.42;;;17.30;41.70;;;;;;4938608;29;20035;-76
2023/04/08 17:07:41;;;;;;;1.52;1.13;;;17.30;42.10;;;;;;4937194;29;20031;-84
2023/04/08 17:10:09;;;;;;;1.90;1.30;;;17.30;42.00;;;;;;4935555;29;20456;-86
2023/04/08 17:12:35;;;;;;;2.53;1.52;;;17.30;42.30;;;;;;4949890;29;20031;-77
2023/04/08 17:15:01;;;;;;;2.58;1.65;;;17.30;41.30;;;;;;4936906;29;20028;-78